createdAt,value
2024-05-09T00:00:43.571Z,9.82
2024-05-09T00:01:43.416Z,9.80
2024-05-09T00:02:43.365Z,9.82
2024-05-09T00:03:43.456Z,9.76
2024-05-09T00:04:43.437Z,9.73
2024-05-09T00:05:43.782Z,9.74
2024-05-09T00:06:43.321Z,9.69
2024-05-09T00:07:43.333Z,9.66
2024-05-09T00:08:43.350Z,9.69
2024-05-09T00:09:43.267Z,9.65
2024-05-09T00:10:43.417Z,9.65
2024-05-09T00:11:43.355Z,9.61
2024-05-09T00:12:43.239Z,9.59
2024-05-09T00:13:43.262Z,9.59
2024-05-09T00:14:43.196Z,9.56
2024-05-09T00:15:43.192Z,9.58
2024-05-09T00:16:43.212Z,9.54
2024-05-09T00:17:43.432Z,9.54
2024-05-09T00:18:43.368Z,9.47
2024-05-09T00:19:43.170Z,9.50
2024-05-09T00:20:43.188Z,9.43
2024-05-09T00:21:43.107Z,9.41
2024-05-09T00:22:43.189Z,9.43
2024-05-09T00:23:43.143Z,9.39
2024-05-09T00:24:43.091Z,9.37
2024-05-09T00:25:43.425Z,9.36
2024-05-09T00:26:43.108Z,9.36
2024-05-09T00:27:43.046Z,9.37
2024-05-09T00:28:43.091Z,9.31
2024-05-09T00:29:42.997Z,9.34
2024-05-09T00:30:43.014Z,9.28
2024-05-09T00:31:43.005Z,9.26
2024-05-09T00:32:43.199Z,9.29
2024-05-09T00:33:43.057Z,9.25
2024-05-09T00:34:42.954Z,9.22
2024-05-09T00:35:42.966Z,9.21
2024-05-09T00:36:42.932Z,9.18
2024-05-09T00:37:42.926Z,9.19
2024-05-09T00:38:42.939Z,9.13
2024-05-09T00:39:42.864Z,9.14
2024-05-09T00:40:43.743Z,9.11
2024-05-09T00:41:42.920Z,9.08
2024-05-09T00:42:42.838Z,9.10
2024-05-09T00:43:42.922Z,9.04
2024-05-09T00:44:42.851Z,9.00
2024-05-09T00:45:42.921Z,8.97
2024-05-09T00:46:42.834Z,8.99
2024-05-09T00:47:42.926Z,8.97
2024-05-09T00:48:42.828Z,8.91
2024-05-09T00:49:42.991Z,8.91
2024-05-09T00:50:42.907Z,8.88
2024-05-09T00:51:42.740Z,8.85
2024-05-09T00:52:42.793Z,8.87
2024-05-09T00:53:42.812Z,8.82
2024-05-09T00:54:42.696Z,8.79
2024-05-09T00:55:42.963Z,8.76
2024-05-09T00:56:42.649Z,8.78
2024-05-09T00:57:42.640Z,8.76
2024-05-09T00:58:42.661Z,8.74
2024-05-09T00:59:42.623Z,8.71
2024-05-09T01:00:42.724Z,8.69
2024-05-09T01:01:42.820Z,8.69
2024-05-09T01:02:42.747Z,8.64
2024-05-09T01:03:42.718Z,8.67
2024-05-09T01:04:42.703Z,8.63
2024-05-09T01:05:43.105Z,8.64
2024-05-09T01:06:42.528Z,8.58
2024-05-09T01:07:42.560Z,8.61
2024-05-09T01:08:42.658Z,8.58
2024-05-09T01:09:42.511Z,8.53
2024-05-09T01:10:45.023Z,8.53
2024-05-09T01:11:42.580Z,8.49
2024-05-09T01:12:42.449Z,8.48
2024-05-09T01:13:42.452Z,8.48
2024-05-09T01:14:42.444Z,8.49
2024-05-09T01:15:42.407Z,8.45
2024-05-09T01:16:42.581Z,8.44
2024-05-09T01:17:42.590Z,8.38
2024-05-09T01:18:42.594Z,8.42
2024-05-09T01:19:42.437Z,8.38
2024-05-09T01:20:44.658Z,8.41
2024-05-09T01:21:42.328Z,8.36
2024-05-09T01:22:42.472Z,8.36
2024-05-09T01:23:42.433Z,8.33
2024-05-09T01:24:42.293Z,8.30
2024-05-09T01:25:42.336Z,8.30
2024-05-09T01:26:42.446Z,8.30
2024-05-09T01:27:42.266Z,8.27
2024-05-09T01:28:42.360Z,8.23
2024-05-09T01:29:42.226Z,8.27
2024-05-09T01:30:42.233Z,8.23
2024-05-09T01:31:42.221Z,8.19
2024-05-09T01:32:42.363Z,8.18
2024-05-09T01:33:42.324Z,8.19
2024-05-09T01:34:42.169Z,8.18
2024-05-09T01:35:43.066Z,8.13
2024-05-09T01:36:42.146Z,8.12
2024-05-09T01:37:42.141Z,8.13
2024-05-09T01:38:42.140Z,8.10
2024-05-09T01:39:42.096Z,8.12
2024-05-09T01:40:42.082Z,8.05
2024-05-09T01:41:42.068Z,8.03
2024-05-09T01:42:42.082Z,8.01
2024-05-09T01:43:42.067Z,8.05
2024-05-09T01:44:42.034Z,8.01
2024-05-09T01:45:42.037Z,8.00
2024-05-09T01:46:42.027Z,8.00
2024-05-09T01:47:42.346Z,7.97
2024-05-09T01:48:42.233Z,7.98
2024-05-09T01:49:42.017Z,7.97
2024-05-09T01:50:43.247Z,7.94
2024-05-09T01:51:41.970Z,7.94
2024-05-09T01:52:41.930Z,7.90
2024-05-09T01:53:41.943Z,7.87
2024-05-09T01:54:41.911Z,7.88
2024-05-09T01:55:41.888Z,7.85
2024-05-09T01:56:41.950Z,7.83
2024-05-09T01:57:41.859Z,7.80
2024-05-09T01:58:41.848Z,7.80
2024-05-09T01:59:41.892Z,7.82
2024-05-09T02:00:43.196Z,7.75
2024-05-09T02:01:56.103Z,7.72
2024-05-09T02:02:42.912Z,7.73
2024-05-09T02:03:41.898Z,7.67
2024-05-09T02:04:41.951Z,7.69
2024-05-09T02:05:41.823Z,7.67
2024-05-09T02:06:41.736Z,7.67
2024-05-09T02:07:41.738Z,7.67
2024-05-09T02:08:41.772Z,7.63
2024-05-09T02:09:41.712Z,7.61
2024-05-09T02:10:41.779Z,7.60
2024-05-09T02:11:41.786Z,7.58
2024-05-09T02:12:41.674Z,7.57
2024-05-09T02:13:41.659Z,7.58
2024-05-09T02:14:41.680Z,7.56
2024-05-09T02:15:41.665Z,7.56
2024-05-09T02:16:41.611Z,7.56
2024-05-09T02:17:41.881Z,7.51
2024-05-09T02:18:41.758Z,7.53
2024-05-09T02:19:41.588Z,7.54
2024-05-09T02:20:42.274Z,7.51
2024-05-09T02:21:41.552Z,7.48
2024-05-09T02:22:41.535Z,7.50
2024-05-09T02:23:41.566Z,7.48
2024-05-09T02:24:41.516Z,7.45
2024-05-09T02:25:41.535Z,7.43
2024-05-09T02:26:41.476Z,7.42
2024-05-09T02:27:41.470Z,7.38
2024-05-09T02:28:41.475Z,7.40
2024-05-09T02:29:41.547Z,7.39
2024-05-09T02:30:42.496Z,7.38
2024-05-09T02:31:41.450Z,7.36
2024-05-09T02:32:41.683Z,7.35
2024-05-09T02:33:41.484Z,7.36
2024-05-09T02:34:41.370Z,7.35
2024-05-09T02:35:41.598Z,7.32
2024-05-09T02:36:41.346Z,7.29
2024-05-09T02:37:41.337Z,7.32
2024-05-09T02:38:41.358Z,7.28
2024-05-09T02:39:41.316Z,7.28
2024-05-09T02:40:41.345Z,7.23
2024-05-09T02:41:41.289Z,7.20
2024-05-09T02:42:41.296Z,7.18
2024-05-09T02:43:41.283Z,7.17
2024-05-09T02:44:41.250Z,7.17
2024-05-09T02:45:41.271Z,7.15
2024-05-09T02:46:41.217Z,7.13
2024-05-09T02:47:41.426Z,7.11
2024-05-09T02:48:41.286Z,7.10
2024-05-09T02:49:41.189Z,7.10
2024-05-09T02:50:41.462Z,7.10
2024-05-09T02:51:41.187Z,7.05
2024-05-09T02:52:41.158Z,7.03
2024-05-09T02:53:41.194Z,7.02
2024-05-09T02:54:41.110Z,7.02
2024-05-09T02:55:41.138Z,6.99
2024-05-09T02:56:41.127Z,6.96
2024-05-09T02:57:41.090Z,6.96
2024-05-09T02:58:41.065Z,6.89
2024-05-09T02:59:41.060Z,6.87
2024-05-09T03:00:42.626Z,6.89
2024-05-09T03:01:41.097Z,6.85
2024-05-09T03:02:48.915Z,6.82
2024-05-09T03:03:41.179Z,6.85
2024-05-09T03:04:48.953Z,6.79
2024-05-09T03:05:41.335Z,6.81
2024-05-09T03:06:40.980Z,6.81
2024-05-09T03:07:40.950Z,6.77
2024-05-09T03:08:40.996Z,6.75
2024-05-09T03:09:40.915Z,6.74
2024-05-09T03:10:40.930Z,6.72
2024-05-09T03:11:41.074Z,6.74
2024-05-09T03:12:40.935Z,6.70
2024-05-09T03:13:40.877Z,6.70
2024-05-09T03:14:40.895Z,6.69
2024-05-09T03:15:40.880Z,6.69
2024-05-09T03:16:40.837Z,6.66
2024-05-09T03:17:40.977Z,6.64
2024-05-09T03:18:40.860Z,6.60
2024-05-09T03:19:40.796Z,6.62
2024-05-09T03:20:40.907Z,6.57
2024-05-09T03:21:40.754Z,6.56
2024-05-09T03:22:40.745Z,6.54
2024-05-09T03:23:40.813Z,6.57
2024-05-09T03:24:40.747Z,6.54
2024-05-09T03:25:40.731Z,6.52
2024-05-09T03:26:40.739Z,6.51
2024-05-09T03:27:40.709Z,6.49
2024-05-09T03:28:40.669Z,6.51
2024-05-09T03:29:40.677Z,6.48
2024-05-09T03:30:42.931Z,6.44
2024-05-09T03:31:40.665Z,6.45
2024-05-09T03:32:40.750Z,6.45
2024-05-09T03:33:40.938Z,6.42
2024-05-09T03:34:40.618Z,6.42
2024-05-09T03:35:40.632Z,6.41
2024-05-09T03:36:40.579Z,6.38
2024-05-09T03:37:40.568Z,6.36
2024-05-09T03:38:40.637Z,6.36
2024-05-09T03:39:40.542Z,6.36
2024-05-09T03:40:40.517Z,6.36
2024-05-09T03:41:40.581Z,6.36
2024-05-09T03:42:40.507Z,6.35
2024-05-09T03:43:40.493Z,6.33
2024-05-09T03:44:40.492Z,6.35
2024-05-09T03:45:40.474Z,6.30
2024-05-09T03:46:40.434Z,6.33
2024-05-09T03:47:40.730Z,6.28
2024-05-09T03:48:40.561Z,6.28
2024-05-09T03:49:40.759Z,6.28
2024-05-09T03:50:40.518Z,6.24
2024-05-09T03:51:40.384Z,6.24
2024-05-09T03:52:40.367Z,6.22
2024-05-09T03:53:40.480Z,6.20
2024-05-09T03:54:40.331Z,6.22
2024-05-09T03:55:40.314Z,6.19
2024-05-09T03:56:40.484Z,6.19
2024-05-09T03:57:40.307Z,6.16
2024-05-09T03:58:40.271Z,6.16
2024-05-09T03:59:40.297Z,6.14
2024-05-09T04:00:40.562Z,6.14
2024-05-09T04:01:40.378Z,6.11
2024-05-09T04:02:40.340Z,6.14
2024-05-09T04:03:40.387Z,6.11
2024-05-09T04:04:40.227Z,6.09
2024-05-09T04:05:41.196Z,6.12
2024-05-09T04:06:40.188Z,6.09
2024-05-09T04:07:40.179Z,6.08
2024-05-09T04:08:40.209Z,6.08
2024-05-09T04:09:40.135Z,6.09
2024-05-09T04:10:40.113Z,6.07
2024-05-09T04:11:40.244Z,6.07
2024-05-09T04:12:40.101Z,6.07
2024-05-09T04:13:40.089Z,6.09
2024-05-09T04:14:40.100Z,6.07
2024-05-09T04:15:40.072Z,6.08
2024-05-09T04:16:40.066Z,6.08
2024-05-09T04:17:40.269Z,6.05
2024-05-09T04:18:40.142Z,6.08
2024-05-09T04:19:40.057Z,6.07
2024-05-09T04:20:41.296Z,6.07
2024-05-09T04:21:39.980Z,6.05
2024-05-09T04:22:39.968Z,6.05
2024-05-09T04:23:40.017Z,6.04
2024-05-09T04:24:39.935Z,6.04
2024-05-09T04:25:39.981Z,6.05
2024-05-09T04:26:39.974Z,6.07
2024-05-09T04:27:39.902Z,6.05
2024-05-09T04:28:39.879Z,6.05
2024-05-09T04:29:39.934Z,6.05
2024-05-09T04:30:41.506Z,6.04
2024-05-09T04:31:39.857Z,6.04
2024-05-09T04:32:39.968Z,6.07
2024-05-09T04:33:40.028Z,6.05
2024-05-09T04:34:39.857Z,6.05
2024-05-09T04:35:39.957Z,6.04
2024-05-09T04:36:43.188Z,6.05
2024-05-09T04:37:39.771Z,6.05
2024-05-09T04:38:39.858Z,6.07
2024-05-09T04:39:39.762Z,6.08
2024-05-09T04:40:39.764Z,6.08
2024-05-09T04:41:39.753Z,6.08
2024-05-09T04:42:39.694Z,6.09
2024-05-09T04:43:39.699Z,6.09
2024-05-09T04:44:39.713Z,6.09
2024-05-09T04:45:39.661Z,6.14
2024-05-09T04:46:39.673Z,6.16
2024-05-09T04:47:39.802Z,6.16
2024-05-09T04:48:39.757Z,6.16
2024-05-09T04:49:39.651Z,6.20
2024-05-09T04:50:40.077Z,6.20
2024-05-09T04:51:39.586Z,6.26
2024-05-09T04:52:39.568Z,6.28
2024-05-09T04:53:39.756Z,6.30
2024-05-09T04:54:39.539Z,6.31
2024-05-09T04:55:40.119Z,6.36
2024-05-09T04:56:39.641Z,6.36
2024-05-09T04:57:39.525Z,6.46
2024-05-09T04:58:39.507Z,6.51
2024-05-09T04:59:39.508Z,6.56
2024-05-09T05:00:40.685Z,6.60
2024-05-09T05:01:39.457Z,6.63
2024-05-09T05:02:39.558Z,6.64
2024-05-09T05:03:39.628Z,6.69
2024-05-09T05:04:39.473Z,6.81
2024-05-09T05:05:39.474Z,6.82
2024-05-09T05:06:39.394Z,6.96
2024-05-09T05:07:39.391Z,7.02
2024-05-09T05:08:39.465Z,7.03
2024-05-09T05:09:39.357Z,7.10
2024-05-09T05:10:39.356Z,7.23
2024-05-09T05:11:39.449Z,7.31
2024-05-09T05:12:39.319Z,7.36
2024-05-09T05:13:41.586Z,7.42
2024-05-09T05:14:39.397Z,7.48
2024-05-09T05:15:39.276Z,7.56
2024-05-09T05:16:39.268Z,7.60
2024-05-09T05:17:39.519Z,7.70
2024-05-09T05:18:39.403Z,7.76
2024-05-09T05:19:39.291Z,7.83
2024-05-09T05:20:39.230Z,7.85
2024-05-09T05:21:39.212Z,8.00
2024-05-09T05:22:39.176Z,8.06
2024-05-09T05:23:39.243Z,8.12
2024-05-09T05:24:39.166Z,8.19
2024-05-09T05:25:39.165Z,8.27
2024-05-09T05:26:39.265Z,8.33
2024-05-09T05:27:39.135Z,8.41
2024-05-09T05:28:39.108Z,8.49
2024-05-09T05:29:39.191Z,8.49
2024-05-09T05:30:39.137Z,8.61
2024-05-09T05:31:39.130Z,8.67
2024-05-09T05:32:39.201Z,8.73
2024-05-09T05:33:39.333Z,8.79
2024-05-09T05:34:39.018Z,8.91
2024-05-09T05:35:39.054Z,8.89
2024-05-09T05:36:38.996Z,9.08
2024-05-09T05:37:39.014Z,9.14
2024-05-09T05:38:39.050Z,9.13
2024-05-09T05:39:38.978Z,9.22
2024-05-09T05:40:40.222Z,9.43
2024-05-09T05:41:38.988Z,9.51
2024-05-09T05:42:38.914Z,9.51
2024-05-09T05:43:38.933Z,9.66
2024-05-09T05:44:38.934Z,9.76
2024-05-09T05:45:39.411Z,9.76
2024-05-09T05:46:38.902Z,9.94
2024-05-09T05:47:38.971Z,10.02
2024-05-09T05:48:38.979Z,10.10
2024-05-09T05:49:38.948Z,10.12
2024-05-09T05:50:39.110Z,10.30
2024-05-09T05:51:38.805Z,10.38
2024-05-09T05:52:38.785Z,10.40
2024-05-09T05:53:38.942Z,10.56
2024-05-09T05:54:38.775Z,10.63
2024-05-09T05:55:38.859Z,10.69
2024-05-09T05:56:38.816Z,10.78
2024-05-09T05:57:38.733Z,10.78
2024-05-09T05:58:38.737Z,10.87
2024-05-09T05:59:38.824Z,11.05
2024-05-09T06:00:40.432Z,11.12
2024-05-09T06:01:38.863Z,11.14
2024-05-09T06:02:38.769Z,11.30
2024-05-09T06:03:39.034Z,11.41
2024-05-09T06:04:38.712Z,11.50
2024-05-09T06:05:38.696Z,11.62
2024-05-09T06:06:38.603Z,11.72
2024-05-09T06:07:38.600Z,11.72
2024-05-09T06:08:38.639Z,11.86
2024-05-09T06:09:38.563Z,12.07
2024-05-09T06:10:40.656Z,12.06
2024-05-09T06:11:38.627Z,12.28
2024-05-09T06:12:38.579Z,12.27
2024-05-09T06:13:38.513Z,12.46
2024-05-09T06:14:38.530Z,12.57
2024-05-09T06:15:38.495Z,12.57
2024-05-09T06:16:38.481Z,12.80
2024-05-09T06:17:38.688Z,12.79
2024-05-09T06:18:38.520Z,13.01
2024-05-09T06:19:38.495Z,13.01
2024-05-09T06:20:38.654Z,13.22
2024-05-09T06:21:38.427Z,13.33
2024-05-09T06:22:38.415Z,13.46
2024-05-09T06:23:38.495Z,13.56
2024-05-09T06:24:38.385Z,13.71
2024-05-09T06:25:38.562Z,13.71
2024-05-09T06:26:38.430Z,13.86
2024-05-09T06:27:38.334Z,14.12
2024-05-09T06:28:38.317Z,14.28
2024-05-09T06:29:38.429Z,14.43
2024-05-09T06:30:40.990Z,14.58
2024-05-09T06:31:38.293Z,14.73
2024-05-09T06:32:38.528Z,14.88
2024-05-09T06:33:38.413Z,15.03
2024-05-09T06:34:38.317Z,15.03
2024-05-09T06:35:38.456Z,15.39
2024-05-09T06:36:38.253Z,15.57
2024-05-09T06:37:38.244Z,15.58
2024-05-09T06:38:38.415Z,15.86
2024-05-09T06:39:38.172Z,16.01
2024-05-09T06:40:40.021Z,16.15
2024-05-09T06:41:38.245Z,16.28
2024-05-09T06:42:38.141Z,16.28
2024-05-09T06:43:38.116Z,16.41
2024-05-09T06:44:38.184Z,16.69
2024-05-09T06:45:38.121Z,16.84
2024-05-09T06:46:38.086Z,16.96
2024-05-09T06:47:38.289Z,16.97
2024-05-09T06:48:38.203Z,17.09
2024-05-09T06:49:38.160Z,17.34
2024-05-09T06:50:39.479Z,17.33
2024-05-09T06:51:38.049Z,17.45
2024-05-09T06:52:38.001Z,17.64
2024-05-09T06:53:38.105Z,17.72
2024-05-09T06:54:37.998Z,17.89
2024-05-09T06:55:38.269Z,17.89
2024-05-09T06:56:38.051Z,18.18
2024-05-09T06:57:40.540Z,18.31
2024-05-09T06:58:37.931Z,18.44
2024-05-09T06:59:37.968Z,18.55
2024-05-09T07:00:40.557Z,18.65
2024-05-09T07:01:37.935Z,18.77
2024-05-09T07:02:38.108Z,18.88
2024-05-09T07:03:37.961Z,18.99
2024-05-09T07:04:37.962Z,19.12
2024-05-09T07:05:37.891Z,19.14
2024-05-09T07:06:37.829Z,19.39
2024-05-09T07:07:37.807Z,19.49
2024-05-09T07:08:37.914Z,19.48
2024-05-09T07:09:37.775Z,19.73
2024-05-09T07:10:38.129Z,19.73
2024-05-09T07:11:37.848Z,19.99
2024-05-09T07:12:37.742Z,19.99
2024-05-09T07:13:37.742Z,20.11
2024-05-09T07:14:38.569Z,20.26
2024-05-09T07:15:37.720Z,20.29
2024-05-09T07:16:37.716Z,20.39
2024-05-09T07:17:37.881Z,20.48
2024-05-09T07:18:37.903Z,20.50
2024-05-09T07:19:37.801Z,20.60
2024-05-09T07:20:37.829Z,20.78
2024-05-09T07:21:37.629Z,21.02
2024-05-09T07:22:37.627Z,21.15
2024-05-09T07:23:37.761Z,21.15
2024-05-09T07:24:37.589Z,21.45
2024-05-09T07:25:37.590Z,21.58
2024-05-09T07:26:37.693Z,21.58
2024-05-09T07:27:37.570Z,21.85
2024-05-09T07:28:37.563Z,21.99
2024-05-09T07:29:38.662Z,21.99
2024-05-09T07:30:37.518Z,22.26
2024-05-09T07:31:37.500Z,22.39
2024-05-09T07:32:37.653Z,22.51
2024-05-09T07:33:37.538Z,22.53
2024-05-09T07:34:37.511Z,22.68
2024-05-09T07:35:37.675Z,22.72
2024-05-09T07:36:37.479Z,22.72
2024-05-09T07:37:37.412Z,22.85
2024-05-09T07:38:37.666Z,22.96
2024-05-09T07:39:37.401Z,23.08
2024-05-09T07:40:37.377Z,23.20
2024-05-09T07:41:37.592Z,23.36
2024-05-09T07:42:37.348Z,23.41
2024-05-09T07:43:37.331Z,23.54
2024-05-09T07:44:37.410Z,23.66
2024-05-09T07:45:48.578Z,23.77
2024-05-09T07:47:47.314Z,23.86
2024-05-09T07:48:58.061Z,23.84
2024-05-09T07:53:14.195Z,24.30
2024-05-09T07:53:33.737Z,24.39
2024-05-09T07:53:43.777Z,24.48
2024-05-09T07:54:38.434Z,24.57
2024-05-09T07:55:37.347Z,24.68
2024-05-09T07:56:37.431Z,24.69
2024-05-09T07:57:37.183Z,24.81
2024-05-09T07:58:37.156Z,24.95
2024-05-09T07:59:37.998Z,25.06
2024-05-09T08:00:37.251Z,25.13
2024-05-09T08:01:37.240Z,25.11
2024-05-09T08:02:37.171Z,25.31
2024-05-09T08:03:37.158Z,25.40
2024-05-09T08:04:37.197Z,25.48
2024-05-09T08:05:37.183Z,25.59
2024-05-09T08:06:37.108Z,25.70
2024-05-09T08:07:37.041Z,25.78
2024-05-09T08:08:37.020Z,25.88
2024-05-09T08:09:38.404Z,25.88
2024-05-09T08:10:37.067Z,26.03
2024-05-09T08:11:37.041Z,26.09
2024-05-09T08:12:36.982Z,26.07
2024-05-09T08:13:37.004Z,26.22
2024-05-09T08:14:36.951Z,26.33
2024-05-09T08:15:36.967Z,26.34
2024-05-09T08:16:36.926Z,26.59
2024-05-09T08:17:37.002Z,26.77
2024-05-09T08:18:37.131Z,26.90
2024-05-09T08:19:36.886Z,26.92
2024-05-09T08:20:36.869Z,27.14
2024-05-09T08:21:36.900Z,27.21
2024-05-09T08:22:36.825Z,27.22
2024-05-09T08:23:36.833Z,27.25
2024-05-09T08:24:36.824Z,27.32
2024-05-09T08:25:36.789Z,27.42
2024-05-09T08:26:36.773Z,27.58
2024-05-09T08:27:36.826Z,27.70
2024-05-09T08:28:36.757Z,27.68
2024-05-09T08:29:36.729Z,27.70
2024-05-09T08:30:38.118Z,27.70
2024-05-09T08:31:36.765Z,27.70
2024-05-09T08:32:36.876Z,27.78
2024-05-09T08:33:37.076Z,28.07
2024-05-09T08:34:36.764Z,28.17
2024-05-09T08:35:36.649Z,28.17
2024-05-09T08:36:36.673Z,28.23
2024-05-09T08:37:38.961Z,28.39
2024-05-09T08:38:36.657Z,28.49
2024-05-09T08:39:36.652Z,28.60
2024-05-09T08:40:37.993Z,28.72
2024-05-09T08:41:36.592Z,28.84
2024-05-09T08:42:36.604Z,28.93
2024-05-09T08:43:39.011Z,29.02
2024-05-09T08:44:36.542Z,29.04
2024-05-09T08:45:36.670Z,29.10
2024-05-09T08:46:36.572Z,29.20
2024-05-09T08:47:36.580Z,29.29
2024-05-09T08:48:37.803Z,29.36
2024-05-09T08:49:37.713Z,29.45
2024-05-09T08:50:39.224Z,29.42
2024-05-09T08:51:36.536Z,29.50
2024-05-09T08:52:36.459Z,29.50
2024-05-09T08:53:36.427Z,29.61
2024-05-09T08:54:36.431Z,29.73
2024-05-09T08:55:40.090Z,29.81
2024-05-09T08:56:37.400Z,29.87
2024-05-09T08:57:36.414Z,29.87
2024-05-09T08:58:36.367Z,29.78
2024-05-09T08:59:36.348Z,29.71
2024-05-09T09:00:37.650Z,29.72
2024-05-09T09:01:37.953Z,29.72
2024-05-09T09:02:36.485Z,29.68
2024-05-09T09:03:36.719Z,29.72
2024-05-09T09:04:36.393Z,29.72
2024-05-09T09:05:36.364Z,29.81
2024-05-09T09:06:36.323Z,30.09
2024-05-09T09:07:36.329Z,30.23
2024-05-09T09:08:36.228Z,30.21
2024-05-09T09:09:36.277Z,30.48
2024-05-09T09:10:36.367Z,30.62
2024-05-09T09:11:36.288Z,30.62
2024-05-09T09:12:36.215Z,30.84
2024-05-09T09:13:36.220Z,30.85
2024-05-09T09:14:36.180Z,30.96
2024-05-09T09:15:36.172Z,31.22
2024-05-09T09:16:36.144Z,31.36
2024-05-09T09:17:36.234Z,31.44
2024-05-09T09:18:36.303Z,31.52
2024-05-09T09:19:36.244Z,31.56
2024-05-09T09:20:37.127Z,31.64
2024-05-09T09:21:36.126Z,31.66
2024-05-09T09:22:36.050Z,31.69
2024-05-09T09:23:36.046Z,31.80
2024-05-09T09:24:36.065Z,31.89
2024-05-09T09:25:36.025Z,31.94
2024-05-09T09:26:35.997Z,31.96
2024-05-09T09:27:36.054Z,31.96
2024-05-09T09:28:35.979Z,31.96
2024-05-09T09:29:35.972Z,31.97
2024-05-09T09:30:37.958Z,31.96
2024-05-09T09:31:35.974Z,31.90
2024-05-09T09:32:35.999Z,31.89
2024-05-09T09:33:36.553Z,32.01
2024-05-09T09:34:35.955Z,32.08
2024-05-09T09:35:35.896Z,32.15
2024-05-09T09:36:35.902Z,32.12
2024-05-09T09:37:35.905Z,32.09
2024-05-09T09:38:35.868Z,32.11
2024-05-09T09:39:35.854Z,32.18
2024-05-09T09:40:38.732Z,32.31
2024-05-09T09:41:36.815Z,32.41
2024-05-09T09:42:35.863Z,32.52
2024-05-09T09:43:35.797Z,32.58
2024-05-09T09:44:39.484Z,32.65
2024-05-09T09:45:35.764Z,32.67
2024-05-09T09:46:35.766Z,32.78
2024-05-09T09:47:35.785Z,32.82
2024-05-09T09:48:35.849Z,32.83
2024-05-09T09:49:35.795Z,32.82
2024-05-09T09:50:35.772Z,32.58
2024-05-09T09:51:35.705Z,32.58
2024-05-09T09:52:35.685Z,32.53
2024-05-09T09:53:35.657Z,32.52
2024-05-09T09:54:35.715Z,32.43
2024-05-09T09:55:35.720Z,32.43
2024-05-09T09:56:35.629Z,32.51
2024-05-09T09:57:35.630Z,32.51
2024-05-09T09:58:35.638Z,32.53
2024-05-09T09:59:35.575Z,32.49
2024-05-09T10:00:35.847Z,32.30
2024-05-09T10:01:35.858Z,32.33
2024-05-09T10:02:35.599Z,32.45
2024-05-09T10:03:35.751Z,32.60
2024-05-09T10:04:35.614Z,32.59
2024-05-09T10:05:35.715Z,32.86
2024-05-09T10:06:35.520Z,32.90
2024-05-09T10:07:35.462Z,32.93
2024-05-09T10:08:35.515Z,32.95
2024-05-09T10:09:35.461Z,33.00
2024-05-09T10:10:35.861Z,33.08
2024-05-09T10:11:42.054Z,33.09
2024-05-09T10:12:36.616Z,33.23
2024-05-09T10:13:35.534Z,33.28
2024-05-09T10:14:35.377Z,33.22
2024-05-09T10:15:35.646Z,33.12
2024-05-09T10:16:35.637Z,33.11
2024-05-09T10:17:35.447Z,33.02
2024-05-09T10:18:35.429Z,32.90
2024-05-09T10:19:35.462Z,32.97
2024-05-09T10:20:35.404Z,32.96
2024-05-09T10:21:35.398Z,33.05
2024-05-09T10:22:35.273Z,33.04
2024-05-09T10:23:35.396Z,33.00
2024-05-09T10:24:35.341Z,32.83
2024-05-09T10:25:35.232Z,32.82
2024-05-09T10:26:35.241Z,32.70
2024-05-09T10:27:35.247Z,32.77
2024-05-09T10:28:35.668Z,32.92
2024-05-09T10:29:35.209Z,32.90
2024-05-09T10:30:36.378Z,33.05
2024-05-09T10:31:35.228Z,32.86
2024-05-09T10:32:35.202Z,32.68
2024-05-09T10:33:35.451Z,32.64
2024-05-09T10:34:35.231Z,32.63
2024-05-09T10:35:35.143Z,32.65
2024-05-09T10:36:35.115Z,32.73
2024-05-09T10:37:35.115Z,32.74
2024-05-09T10:38:35.108Z,32.74
2024-05-09T10:39:35.101Z,32.73
2024-05-09T10:40:35.131Z,32.82
2024-05-09T10:41:35.064Z,32.82
2024-05-09T10:42:35.055Z,32.77
2024-05-09T10:43:35.073Z,32.71
2024-05-09T10:44:34.966Z,32.73
2024-05-09T10:45:35.041Z,32.63
2024-05-09T10:46:34.939Z,32.55
2024-05-09T10:47:35.015Z,32.45
2024-05-09T10:48:35.010Z,32.31
2024-05-09T10:49:35.043Z,32.33
2024-05-09T10:50:34.979Z,32.21
2024-05-09T10:51:34.934Z,31.99
2024-05-09T10:52:34.894Z,31.89
2024-05-09T10:53:34.905Z,31.81
2024-05-09T10:54:34.902Z,31.74
2024-05-09T10:55:34.846Z,31.74
2024-05-09T10:56:34.865Z,31.70
2024-05-09T10:57:34.852Z,31.85
2024-05-09T10:58:34.792Z,31.87
2024-05-09T10:59:34.780Z,31.87
2024-05-09T11:00:36.429Z,31.87
2024-05-09T11:01:34.936Z,31.80
2024-05-09T11:02:34.853Z,31.74
2024-05-09T11:03:35.527Z,31.61
2024-05-09T11:04:34.804Z,31.55
2024-05-09T11:05:35.094Z,31.55
2024-05-09T11:06:34.743Z,31.15
2024-05-09T11:07:34.673Z,30.88
2024-05-09T11:08:34.674Z,30.57
2024-05-09T11:09:34.708Z,30.61
2024-05-09T11:10:34.959Z,30.27
2024-05-09T11:11:34.698Z,29.88
2024-05-09T11:12:34.622Z,29.78
2024-05-09T11:13:34.609Z,29.72
2024-05-09T11:14:34.586Z,29.66
2024-05-09T11:15:34.659Z,29.63
2024-05-09T11:16:34.576Z,29.69
2024-05-09T11:17:34.646Z,29.69
2024-05-09T11:18:37.967Z,29.90
2024-05-09T11:19:34.563Z,29.93
2024-05-09T11:20:35.518Z,29.93
2024-05-09T11:21:34.539Z,29.97
2024-05-09T11:22:34.490Z,30.12
2024-05-09T11:23:34.468Z,30.19
2024-05-09T11:24:34.491Z,30.27
2024-05-09T11:25:34.459Z,30.28
2024-05-09T11:26:34.432Z,30.23
2024-05-09T11:27:34.425Z,30.23
2024-05-09T11:28:34.511Z,30.16
2024-05-09T11:29:34.436Z,30.21
2024-05-09T11:30:34.450Z,30.19
2024-05-09T11:31:34.497Z,30.28
2024-05-09T11:32:34.419Z,30.30
2024-05-09T11:33:34.403Z,30.19
2024-05-09T11:34:34.521Z,30.15
2024-05-09T11:35:34.315Z,30.18
2024-05-09T11:36:34.318Z,30.10
2024-05-09T11:37:36.073Z,30.13
2024-05-09T11:38:34.277Z,30.19
2024-05-09T11:39:34.335Z,30.21
2024-05-09T11:40:34.891Z,30.09
2024-05-09T11:41:34.239Z,30.10
2024-05-09T11:42:34.248Z,29.72
2024-05-09T11:43:34.307Z,29.72
2024-05-09T11:44:34.225Z,29.51
2024-05-09T11:45:34.447Z,29.56
2024-05-09T11:46:34.187Z,29.63
2024-05-09T11:47:34.311Z,29.72
2024-05-09T11:48:34.506Z,29.84
2024-05-09T11:49:34.213Z,29.86
2024-05-09T11:50:35.969Z,29.91
2024-05-09T11:51:34.163Z,29.91
2024-05-09T11:52:34.098Z,29.87
2024-05-09T11:53:34.120Z,29.79
2024-05-09T11:54:34.079Z,29.79
2024-05-09T11:55:34.135Z,29.73
2024-05-09T11:56:34.086Z,29.73
2024-05-09T11:57:34.053Z,29.39
2024-05-09T11:58:34.042Z,29.41
2024-05-09T11:59:33.997Z,29.34
2024-05-09T12:00:37.244Z,29.24
2024-05-09T12:01:34.190Z,29.22
2024-05-09T12:02:34.230Z,29.16
2024-05-09T12:03:34.029Z,29.08
2024-05-09T12:04:34.022Z,29.08
2024-05-09T12:05:34.564Z,28.91
2024-05-09T12:06:33.966Z,28.84
2024-05-09T12:07:33.909Z,28.74
2024-05-09T12:08:33.911Z,28.66
2024-05-09T12:09:33.918Z,28.59
2024-05-09T12:10:35.969Z,28.51
2024-05-09T12:11:34.078Z,28.51
2024-05-09T12:12:35.509Z,28.49
2024-05-09T12:13:33.858Z,28.47
2024-05-09T12:14:33.794Z,28.42
2024-05-09T12:15:33.834Z,28.37
2024-05-09T12:16:33.859Z,28.32
2024-05-09T12:17:33.839Z,28.26
2024-05-09T12:18:33.839Z,28.17
2024-05-09T12:19:33.866Z,28.08
2024-05-09T12:20:37.907Z,27.98
2024-05-09T12:21:34.747Z,27.89
2024-05-09T12:22:33.685Z,27.82
2024-05-09T12:23:33.684Z,27.68
2024-05-09T12:24:33.720Z,27.59
2024-05-09T12:25:33.727Z,27.55
2024-05-09T12:26:33.673Z,27.52
2024-05-09T12:27:33.702Z,27.52
2024-05-09T12:28:33.612Z,27.52
2024-05-09T12:29:36.172Z,27.52
2024-05-09T12:30:38.193Z,27.39
2024-05-09T12:31:34.616Z,27.35
2024-05-09T12:32:33.703Z,27.35
2024-05-09T12:33:33.599Z,27.40
2024-05-09T12:34:33.567Z,27.39
2024-05-09T12:35:33.551Z,27.54
2024-05-09T12:36:33.559Z,27.80
2024-05-09T12:37:33.498Z,27.80
2024-05-09T12:38:33.500Z,28.07
2024-05-09T12:39:33.585Z,28.07
2024-05-09T12:40:37.041Z,28.22
2024-05-09T12:41:34.463Z,28.32
2024-05-09T12:42:33.944Z,28.39
2024-05-09T12:43:33.586Z,28.48
2024-05-09T12:44:33.443Z,28.48
2024-05-09T12:45:33.622Z,28.63
2024-05-09T12:46:33.428Z,28.64
2024-05-09T12:47:33.432Z,28.67
2024-05-09T12:48:33.729Z,28.75
2024-05-09T12:49:33.597Z,28.84
2024-05-09T12:50:41.957Z,28.93
2024-05-09T12:51:33.366Z,28.93
2024-05-09T12:52:33.307Z,29.07
2024-05-09T12:53:33.313Z,28.98
2024-05-09T12:54:33.322Z,29.02
2024-05-09T12:55:41.356Z,28.93
2024-05-09T12:56:34.259Z,28.88
2024-05-09T12:57:33.306Z,28.81
2024-05-09T12:58:33.253Z,28.85
2024-05-09T12:59:33.239Z,28.82
2024-05-09T13:00:34.369Z,28.75
2024-05-09T13:01:33.455Z,28.69
2024-05-09T13:02:33.365Z,28.60
2024-05-09T13:03:33.461Z,28.62
2024-05-09T13:04:33.405Z,28.45
2024-05-09T13:05:41.834Z,28.37
2024-05-09T13:06:33.295Z,28.29